Time;durP1;ratioP1;P1;durP2;ratioP2;P2;SDS_P1;SDS_P2;PMS_P1;PMS_P2;Temp;Humidity;BMP_temperature;BMP_pressure;BME280_temperature;BME280_humidity;BME280_pressure;Samples;Min_cycle;Max_cycle;Signal;HPM_P1;HPM_P2
2023/09/27 00:04:19;;;;;;;11.60;10.60;;;24.20;69.00;;;;;;217356;1291;22552;-62
2023/09/27 00:09:21;;;;;;;11.70;10.60;;;24.20;69.20;;;;;;217118;1291;22939;-62
2023/09/27 00:14:24;;;;;;;11.70;10.50;;;24.10;69.10;;;;;;217409;1295;24266;-61
2023/09/27 00:19:27;;;;;;;11.50;10.30;;;24.20;68.90;;;;;;216971;1291;22548;-62
2023/09/27 00:24:30;;;;;;;11.30;10.10;;;24.10;69.30;;;;;;217309;1282;24139;-62
2023/09/27 00:29:34;;;;;;;10.80;9.70;;;24.10;68.80;;;;;;217390;1292;22554;-61
2023/09/27 00:34:37;;;;;;;11.80;10.80;;;24.10;69.00;;;;;;217098;1297;22549;-60
2023/09/27 00:39:40;;;;;;;11.30;9.80;;;24.10;69.00;;;;;;217083;1291;25389;-62
2023/09/27 00:44:44;;;;;;;13.10;10.10;;;24.00;68.80;;;;;;217427;1291;23268;-60
2023/09/27 00:49:50;;;;;;;12.10;7.20;;;24.10;68.90;;;;;;216992;1294;22544;-61
2023/09/27 00:54:53;;;;;;;11.50;10.30;;;24.10;68.80;;;;;;217117;1292;23601;-62
2023/09/27 00:59:58;;;;;;;10.90;9.90;;;24.00;68.90;;;;;;217210;1291;22549;-63
2023/09/27 01:05:01;;;;;;;11.10;10.10;;;24.10;68.70;;;;;;217336;1294;22720;-61
2023/09/27 01:10:05;;;;;;;11.20;10.10;;;24.10;68.60;;;;;;217273;1298;22604;-62
2023/09/27 01:15:08;;;;;;;10.40;9.60;;;24.10;68.90;;;;;;217289;1291;24260;-61
2023/09/27 01:20:12;;;;;;;10.10;9.20;;;24.10;68.60;;;;;;217132;1292;22659;-60
2023/09/27 01:25:17;;;;;;;9.90;9.00;;;24.00;68.50;;;;;;217325;1285;22556;-60
2023/09/27 01:30:20;;;;;;;9.40;8.50;;;24.00;68.60;;;;;;217329;1291;24311;-61
2023/09/27 01:35:23;;;;;;;9.70;8.80;;;24.00;68.50;;;;;;217181;1292;22714;-60
2023/09/27 01:40:31;;;;;;;10.10;9.10;;;24.10;68.80;;;;;;217050;1292;23956;-62
2023/09/27 01:45:35;;;;;;;9.60;8.80;;;24.00;68.50;;;;;;217043;1285;22577;-61
2023/09/27 01:50:38;;;;;;;10.10;9.10;;;24.00;68.50;;;;;;217426;1276;22561;-62
2023/09/27 01:55:41;;;;;;;8.90;8.10;;;24.10;68.80;;;;;;217346;1295;23925;-62
2023/09/27 02:00:44;;;;;;;9.70;8.90;;;24.00;68.50;;;;;;217517;1294;24240;-60
2023/09/27 02:05:47;;;;;;;9.10;8.30;;;24.10;68.10;;;;;;217085;1294;22568;-62
2023/09/27 02:10:51;;;;;;;9.50;8.60;;;24.00;68.30;;;;;;217232;1297;22608;-60
2023/09/27 02:15:57;;;;;;;9.70;8.80;;;24.10;68.40;;;;;;217355;1285;22613;-61
2023/09/27 02:21:01;;;;;;;9.60;8.70;;;24.00;68.40;;;;;;217323;1288;23974;-64
2023/09/27 02:26:05;;;;;;;9.40;8.30;;;24.00;68.80;;;;;;217108;1285;24263;-60
2023/09/27 02:31:12;;;;;;;8.90;8.10;;;24.00;68.40;;;;;;216920;1285;22731;-60
2023/09/27 02:36:15;;;;;;;8.80;8.10;;;24.00;68.50;;;;;;217239;1294;24211;-63
2023/09/27 02:41:18;;;;;;;9.10;8.30;;;24.00;69.20;;;;;;217336;1288;22650;-62
2023/09/27 02:46:21;;;;;;;9.20;8.40;;;24.00;68.80;;;;;;217291;1291;22574;-61
2023/09/27 02:51:23;;;;;;;9.10;8.40;;;24.00;69.20;;;;;;216940;1298;22551;-60
2023/09/27 02:56:26;;;;;;;8.70;8.00;;;24.00;69.00;;;;;;217199;1288;22754;-61
2023/09/27 03:01:29;;;;;;;8.30;7.50;;;24.00;68.80;;;;;;217148;1289;22594;-61
2023/09/27 03:06:33;;;;;;;9.00;8.20;;;24.00;69.00;;;;;;216739;1292;265723;-61
2023/09/27 03:11:36;;;;;;;9.70;8.80;;;24.00;68.60;;;;;;217166;1294;24253;-62
2023/09/27 03:16:39;;;;;;;9.00;8.30;;;24.00;68.80;;;;;;217453;1294;22564;-62
2023/09/27 03:21:42;;;;;;;8.10;7.40;;;24.00;68.60;;;;;;217011;1294;22676;-61
2023/09/27 03:26:45;;;;;;;8.80;8.10;;;24.10;68.70;;;;;;217327;1291;22783;-62
2023/09/27 03:31:47;;;;;;;8.20;7.60;;;23.90;68.70;;;;;;217115;1298;22583;-62
2023/09/27 03:36:55;;;;;;;8.40;7.60;;;23.90;69.20;;;;;;217088;1298;23924;-61
2023/09/27 03:41:58;;;;;;;8.00;7.30;;;23.90;68.70;;;;;;217375;1297;22661;-60
2023/09/27 03:47:01;;;;;;;8.30;7.70;;;23.90;69.10;;;;;;216984;1298;22567;-61
2023/09/27 03:52:04;;;;;;;8.30;7.70;;;23.90;68.50;;;;;;217090;1298;23940;-62
2023/09/27 03:57:07;;;;;;;8.10;7.40;;;24.00;69.00;;;;;;216918;1292;22601;-61
2023/09/27 04:02:10;;;;;;;9.00;8.20;;;23.90;69.20;;;;;;217312;1288;22605;-61
2023/09/27 04:07:12;;;;;;;7.50;6.90;;;24.00;69.10;;;;;;217372;1298;22726;-62
2023/09/27 04:12:15;;;;;;;9.20;8.30;;;24.00;68.90;;;;;;217180;1289;22544;-61
2023/09/27 04:17:18;;;;;;;10.20;8.60;;;23.90;68.60;;;;;;216996;1295;25594;-60
2023/09/27 04:22:21;;;;;;;9.30;8.40;;;23.90;69.00;;;;;;217421;1294;22549;-61
2023/09/27 04:27:24;;;;;;;9.10;7.30;;;23.90;68.70;;;;;;217096;1298;24234;-61
2023/09/27 04:32:27;;;;;;;8.60;7.90;;;23.90;68.50;;;;;;217122;1298;22536;-61
2023/09/27 04:37:30;;;;;;;9.90;7.90;;;23.80;68.50;;;;;;217108;1292;22708;-60
2023/09/27 04:42:34;;;;;;;7.90;7.20;;;23.90;68.80;;;;;;216947;1295;22552;-60
2023/09/27 04:47:37;;;;;;;8.30;7.60;;;23.90;68.60;;;;;;217287;1292;25203;-61
2023/09/27 04:52:41;;;;;;;7.60;7.00;;;23.90;68.30;;;;;;217205;1292;23058;-62
2023/09/27 04:57:44;;;;;;;8.00;7.30;;;23.80;68.40;;;;;;217321;1282;22547;-61
2023/09/27 05:02:47;;;;;;;7.30;6.70;;;23.80;69.40;;;;;;217379;1292;25561;-62
2023/09/27 05:07:50;;;;;;;7.80;6.80;;;23.80;68.50;;;;;;217071;1294;22638;-62
2023/09/27 05:12:53;;;;;;;7.60;6.90;;;23.80;68.40;;;;;;217084;1295;22666;-63
2023/09/27 05:17:56;;;;;;;7.80;7.20;;;23.90;68.40;;;;;;216999;1297;22554;-62
2023/09/27 05:22:59;;;;;;;6.70;6.10;;;23.80;68.70;;;;;;217397;1295;22652;-60
2023/09/27 05:28:03;;;;;;;7.80;7.10;;;23.80;68.30;;;;;;217162;1297;22576;-61
2023/09/27 05:33:05;;;;;;;7.10;6.50;;;23.80;68.60;;;;;;217072;1298;24231;-60
2023/09/27 05:38:08;;;;;;;6.90;6.30;;;23.90;68.20;;;;;;217088;1298;23953;-62
2023/09/27 05:43:11;;;;;;;7.60;6.50;;;23.90;68.50;;;;;;216982;1298;22582;-63
2023/09/27 05:48:14;;;;;;;6.90;6.40;;;23.90;68.30;;;;;;216879;1295;25395;-60
2023/09/27 05:53:17;;;;;;;8.00;6.70;;;23.90;68.50;;;;;;217233;1285;22694;-53
2023/09/27 05:58:20;;;;;;;7.10;6.50;;;23.70;68.80;;;;;;217129;1286;22591;-54
2023/09/27 06:03:23;;;;;;;7.20;6.50;;;23.70;69.00;;;;;;217292;1298;24423;-53
2023/09/27 06:08:26;;;;;;;9.90;6.90;;;23.70;69.50;;;;;;217148;1291;24303;-52
2023/09/27 06:13:28;;;;;;;8.20;7.30;;;23.70;70.20;;;;;;217142;1298;22694;-54
2023/09/27 06:18:31;;;;;;;12.00;7.90;;;23.70;70.30;;;;;;216906;1294;22585;-51
2023/09/27 06:23:35;;;;;;;7.40;6.40;;;23.70;70.90;;;;;;217087;1296;22672;-51
2023/09/27 06:28:38;;;;;;;7.40;6.60;;;23.80;70.60;;;;;;217067;1292;22637;-52
2023/09/27 06:33:44;;;;;;;9.30;6.70;;;23.70;70.90;;;;;;216891;1293;22557;-52
2023/09/27 06:38:47;;;;;;;7.20;6.60;;;23.70;71.10;;;;;;216780;1282;22582;-51
2023/09/27 06:43:50;;;;;;;6.60;6.00;;;23.70;70.70;;;;;;217126;1298;22549;-53
2023/09/27 06:48:53;;;;;;;9.20;5.80;;;23.80;70.70;;;;;;216928;1298;22644;-51
2023/09/27 06:53:57;;;;;;;6.80;5.80;;;23.80;70.80;;;;;;217131;1288;22572;-52
2023/09/27 06:59:00;;;;;;;7.50;5.80;;;23.80;70.60;;;;;;217194;1298;22549;-52
2023/09/27 07:04:03;;;;;;;7.30;6.60;;;23.80;70.40;;;;;;217333;1291;22685;-55
2023/09/27 07:09:12;;;;;;;9.30;7.30;;;23.90;70.70;;;;;;217209;1292;22604;-49
2023/09/27 07:14:19;;;;;;;14.60;7.40;;;24.10;70.10;;;;;;216935;1283;22601;-52
2023/09/27 07:19:23;;;;;;;10.50;6.20;;;23.90;70.30;;;;;;219829;1298;25226;-54
2023/09/27 07:24:29;;;;;;;9.00;5.30;;;24.10;69.80;;;;;;216878;1298;22617;-52
2023/09/27 07:29:33;;;;;;;7.80;5.10;;;24.10;69.50;;;;;;217218;1298;22658;-54
2023/09/27 07:34:37;;;;;;;7.50;6.10;;;24.10;69.50;;;;;;217107;1295;22581;-52
2023/09/27 07:39:40;;;;;;;6.40;5.80;;;24.00;69.40;;;;;;216890;1295;25376;-53
2023/09/27 07:44:46;;;;;;;5.60;5.10;;;24.10;69.40;;;;;;217040;1277;24238;-52
2023/09/27 07:49:49;;;;;;;8.60;6.60;;;24.00;69.50;;;;;;217175;1291;22554;-53
2023/09/27 07:54:52;;;;;;;5.90;5.40;;;24.20;68.70;;;;;;217139;1288;22660;-51
2023/09/27 07:59:55;;;;;;;5.90;5.40;;;24.30;68.40;;;;;;216910;1291;22651;-53
2023/09/27 08:04:57;;;;;;;8.10;5.40;;;24.30;68.20;;;;;;216934;1292;25332;-51
2023/09/27 08:10:00;;;;;;;6.40;5.90;;;24.30;68.30;;;;;;217029;1293;23935;-53
2023/09/27 08:15:23;;;;;;;5.70;5.20;;;24.30;68.10;;;;;;217167;1289;22582;-53
2023/09/27 08:20:27;;;;;;;6.20;5.60;;;24.40;67.80;;;;;;217344;1291;22568;-49
2023/09/27 08:25:31;;;;;;;5.50;5.00;;;24.40;68.30;;;;;;217141;1295;25473;-50
2023/09/27 08:30:33;;;;;;;5.90;5.20;;;24.30;68.00;;;;;;217823;1292;22557;-48
2023/09/27 08:35:37;;;;;;;6.00;5.40;;;24.40;67.70;;;;;;217001;1288;22565;-48
2023/09/27 08:40:40;;;;;;;7.20;5.60;;;24.60;68.20;;;;;;217241;1298;22653;-49
2023/09/27 08:45:45;;;;;;;5.30;4.90;;;24.70;67.20;;;;;;217031;1295;24251;-49
2023/09/27 08:50:51;;;;;;;5.80;5.00;;;24.70;67.00;;;;;;217083;1295;25359;-50
2023/09/27 08:55:54;;;;;;;4.90;4.60;;;24.80;67.10;;;;;;217278;1291;24265;-51
2023/09/27 09:00:57;;;;;;;5.00;4.60;;;24.80;67.10;;;;;;217023;1298;22754;-52
2023/09/27 09:06:01;;;;;;;5.20;4.80;;;24.80;66.80;;;;;;217181;1292;22678;-48
2023/09/27 09:11:06;;;;;;;6.00;5.40;;;24.70;67.40;;;;;;216930;1295;24253;-51
2023/09/27 09:16:15;;;;;;;5.20;4.80;;;24.90;67.00;;;;;;217081;1297;22563;-49
2023/09/27 09:21:21;;;;;;;5.60;5.10;;;25.00;66.30;;;;;;217181;1296;22733;-49
2023/09/27 09:26:29;;;;;;;5.30;4.90;;;25.00;66.40;;;;;;217260;1298;22581;-50
2023/09/27 09:31:33;;;;;;;5.10;4.60;;;25.20;65.70;;;;;;217058;1294;22631;-51
2023/09/27 09:36:39;;;;;;;4.70;4.40;;;25.20;65.80;;;;;;217476;1279;23978;-53
2023/09/27 09:41:47;;;;;;;5.70;4.70;;;25.30;65.80;;;;;;217026;1295;24319;-49
2023/09/27 09:46:56;;;;;;;6.00;4.80;;;25.10;66.50;;;;;;217392;1297;26192;-52
2023/09/27 09:52:01;;;;;;;5.10;4.70;;;24.90;67.10;;;;;;217161;1294;24331;-51
2023/09/27 09:57:07;;;;;;;5.10;4.50;;;25.00;67.10;;;;;;217208;1298;22641;-51
2023/09/27 10:02:26;;;;;;;4.70;4.40;;;25.10;66.80;;;;;;216953;1292;22683;-49
2023/09/27 10:07:32;;;;;;;4.60;4.30;;;25.20;66.70;;;;;;217380;1276;22567;-51
2023/09/27 10:12:37;;;;;;;4.70;4.30;;;25.30;66.50;;;;;;217339;1296;25406;-49
2023/09/27 10:17:39;;;;;;;;;;;25.40;66.40;;;;;;217303;1293;25524;-49
2023/09/27 10:22:44;;;;;;;7.00;5.10;;;25.50;65.80;;;;;;217381;1292;23979;-53
2023/09/27 10:27:59;;;;;;;4.80;4.40;;;25.70;65.40;;;;;;217354;1294;22630;-51
2023/09/27 10:33:28;;;;;;;7.50;6.00;;;25.70;65.60;;;;;;217492;1292;25331;-51
2023/09/27 10:38:43;;;;;;;5.40;4.70;;;26.00;65.10;;;;;;217582;1295;22552;-53
2023/09/27 10:43:46;;;;;;;4.70;4.40;;;25.90;64.70;;;;;;217366;1294;24330;-51
2023/09/27 10:48:57;;;;;;;5.00;4.60;;;25.80;65.20;;;;;;217186;1295;22723;-53
2023/09/27 10:54:00;;;;;;;4.60;4.20;;;25.80;65.10;;;;;;217605;1292;25435;-55
2023/09/27 10:59:04;;;;;;;6.20;4.50;;;25.90;64.90;;;;;;217210;1297;22695;-52
2023/09/27 11:04:12;;;;;;;4.70;4.00;;;26.00;65.00;;;;;;217405;1292;22556;-54
2023/09/27 11:09:19;;;;;;;4.20;4.00;;;26.00;64.60;;;;;;217512;1292;22556;-52
2023/09/27 11:14:32;;;;;;;4.80;4.40;;;26.00;65.30;;;;;;217138;1298;23437;-52
2023/09/27 11:19:35;;;;;;;5.00;4.10;;;26.00;64.70;;;;;;217442;1298;22648;-52
2023/09/27 11:24:41;;;;;;;4.70;3.80;;;26.00;64.70;;;;;;217667;1291;22850;-53
2023/09/27 11:29:55;;;;;;;5.60;4.10;;;26.10;64.30;;;;;;217496;1298;22552;-53
2023/09/27 11:34:59;;;;;;;5.00;4.50;;;26.20;64.10;;;;;;217446;1293;22609;-53
2023/09/27 11:40:03;;;;;;;10.30;4.20;;;26.20;60.00;;;;;;217470;1294;22570;-52
2023/09/27 11:45:12;;;;;;;5.60;5.00;;;26.30;59.50;;;;;;217054;1295;25396;-53
2023/09/27 11:50:16;;;;;;;4.10;3.80;;;26.30;59.90;;;;;;217243;1295;22781;-53
2023/09/27 11:55:19;;;;;;;6.30;4.40;;;26.40;60.00;;;;;;217288;1291;23954;-54
2023/09/27 12:00:22;;;;;;;4.90;3.80;;;26.40;57.40;;;;;;217812;1291;24301;-55
2023/09/27 12:05:25;;;;;;;10.80;5.20;;;26.40;57.50;;;;;;217229;1298;24264;-54
2023/09/27 12:10:29;;;;;;;8.10;5.00;;;26.40;56.70;;;;;;217043;1294;26732;-52
2023/09/27 12:15:32;;;;;;;8.60;4.30;;;26.50;56.20;;;;;;217404;1292;22559;-54
2023/09/27 12:20:39;;;;;;;4.80;4.30;;;26.50;56.40;;;;;;217320;1294;22691;-52
2023/09/27 12:25:45;;;;;;;6.40;4.50;;;26.50;55.80;;;;;;217244;1291;23978;-52
2023/09/27 12:30:49;;;;;;;5.30;4.50;;;26.40;55.00;;;;;;217103;1295;22557;-52
2023/09/27 12:35:51;;;;;;;9.20;4.80;;;26.50;54.70;;;;;;217370;1292;26155;-55
2023/09/27 12:40:54;;;;;;;7.90;4.80;;;26.40;55.10;;;;;;217494;1296;22568;-51
2023/09/27 12:45:57;;;;;;;8.70;4.80;;;26.50;55.50;;;;;;217197;1294;24455;-51
2023/09/27 12:51:00;;;;;;;8.10;5.00;;;26.60;54.90;;;;;;217320;1292;22691;-53
2023/09/27 12:56:05;;;;;;;7.20;4.80;;;26.50;53.50;;;;;;217402;1294;23958;-51
2023/09/27 13:01:08;;;;;;;6.90;4.40;;;26.60;53.70;;;;;;217128;1292;22586;-53
2023/09/27 13:06:11;;;;;;;6.60;4.60;;;26.60;53.40;;;;;;217252;1289;22548;-54
2023/09/27 13:11:14;;;;;;;7.30;4.80;;;26.60;52.50;;;;;;217391;1295;24257;-52
2023/09/27 13:16:17;;;;;;;6.90;5.20;;;26.70;52.50;;;;;;217303;1298;22553;-52
2023/09/27 13:21:19;;;;;;;5.70;4.40;;;26.80;51.70;;;;;;217111;1291;22550;-51
2023/09/27 13:26:22;;;;;;;6.20;4.20;;;26.80;51.50;;;;;;217034;1298;22556;-54
2023/09/27 13:31:32;;;;;;;7.40;4.70;;;26.80;50.70;;;;;;217285;1291;24258;-53
2023/09/27 13:36:36;;;;;;;7.70;4.40;;;26.80;50.80;;;;;;217542;1291;23950;-51
2023/09/27 13:41:45;;;;;;;6.60;4.40;;;26.70;50.60;;;;;;217318;1291;22583;-54
2023/09/27 13:46:49;;;;;;;8.30;4.80;;;26.70;51.70;;;;;;217093;1291;22559;-55
2023/09/27 13:51:52;;;;;;;11.00;4.90;;;26.70;51.40;;;;;;217034;1294;22649;-54
2023/09/27 13:56:55;;;;;;;7.20;4.80;;;26.60;51.70;;;;;;217346;1294;22694;-53
2023/09/27 14:01:58;;;;;;;8.50;5.80;;;26.70;50.90;;;;;;216883;1282;24094;-50
2023/09/27 14:07:02;;;;;;;7.70;4.30;;;26.80;50.70;;;;;;219492;1294;22569;-53
2023/09/27 14:12:06;;;;;;;8.40;4.90;;;26.80;51.40;;;;;;216987;1278;22576;-54
2023/09/27 14:17:08;;;;;;;6.50;4.30;;;26.80;50.20;;;;;;219366;1292;22735;-52
2023/09/27 14:22:11;;;;;;;5.50;4.50;;;26.70;50.70;;;;;;217259;1292;22569;-54
2023/09/27 14:27:14;;;;;;;5.60;4.10;;;26.70;50.80;;;;;;217383;1294;22559;-55
2023/09/27 14:32:17;;;;;;;8.90;4.70;;;26.60;51.00;;;;;;216794;1291;22578;-53
2023/09/27 14:37:20;;;;;;;7.10;4.90;;;26.50;50.60;;;;;;217383;1298;22619;-55
2023/09/27 14:42:23;;;;;;;5.00;4.60;;;26.50;51.30;;;;;;217051;1291;22559;-52
2023/09/27 14:47:26;;;;;;;5.60;4.10;;;26.40;51.70;;;;;;217514;1294;24090;-52
2023/09/27 14:52:30;;;;;;;7.10;4.50;;;26.40;51.20;;;;;;217450;1298;25442;-54
2023/09/27 14:57:33;;;;;;;5.20;4.50;;;26.30;51.10;;;;;;217328;1285;22566;-53
2023/09/27 15:02:36;;;;;;;7.60;4.70;;;26.40;50.80;;;;;;217255;1292;25179;-54
2023/09/27 15:07:39;;;;;;;10.10;5.20;;;26.30;51.00;;;;;;217037;1297;233609;-51
2023/09/27 15:12:42;;;;;;;5.00;4.50;;;26.30;52.00;;;;;;217018;1282;22552;-54
2023/09/27 15:17:45;;;;;;;4.70;3.20;;;26.30;51.20;;;;;;217205;1285;24318;-53
2023/09/27 15:22:48;;;;;;;5.10;4.60;;;26.30;53.80;;;;;;217438;1298;24426;-51
2023/09/27 15:27:50;;;;;;;9.70;5.00;;;26.30;52.00;;;;;;217477;1297;25390;-53
2023/09/27 15:32:53;;;;;;;9.90;5.00;;;26.30;51.20;;;;;;217175;1291;22558;-52
2023/09/27 15:37:57;;;;;;;15.90;5.40;;;26.20;51.50;;;;;;217358;1297;22561;-51
2023/09/27 15:43:01;;;;;;;9.30;6.10;;;26.10;51.70;;;;;;217153;1295;22660;-51
2023/09/27 15:48:04;;;;;;;11.30;6.20;;;26.00;50.80;;;;;;217312;1291;22566;-53
2023/09/27 15:53:07;;;;;;;14.90;6.00;;;26.00;50.60;;;;;;217429;1298;23766;-50
2023/09/27 15:58:09;;;;;;;11.90;6.00;;;26.00;50.70;;;;;;217266;1291;22737;-51
2023/09/27 16:03:13;;;;;;;23.30;11.50;;;25.90;51.10;;;;;;217441;1291;24249;-53
2023/09/27 16:08:20;;;;;;;16.50;9.50;;;26.00;52.60;;;;;;216927;1298;22556;-55
2023/09/27 16:13:23;;;;;;;15.50;8.30;;;25.90;53.10;;;;;;217055;1285;24070;-52
2023/09/27 16:18:26;;;;;;;16.30;7.10;;;25.90;51.90;;;;;;217467;1291;25536;-54
2023/09/27 16:23:29;;;;;;;11.00;5.80;;;25.70;51.80;;;;;;217601;1292;22679;-51
2023/09/27 16:28:32;;;;;;;9.50;5.50;;;25.60;52.30;;;;;;217343;1297;23113;-50
2023/09/27 16:33:36;;;;;;;11.80;5.80;;;25.40;52.70;;;;;;217330;1298;22675;-53
2023/09/27 16:38:38;;;;;;;7.20;5.60;;;25.30;53.80;;;;;;217619;1298;25268;-52
2023/09/27 16:43:41;;;;;;;13.90;6.10;;;25.30;53.80;;;;;;217183;1291;22545;-49
2023/09/27 16:48:44;;;;;;;13.30;5.90;;;25.30;53.60;;;;;;216738;1292;22561;-54
2023/09/27 16:53:47;;;;;;;8.30;5.80;;;25.30;53.80;;;;;;217085;1294;22696;-53
2023/09/27 16:58:50;;;;;;;12.70;6.00;;;25.20;54.00;;;;;;217183;1293;22619;-54
2023/09/27 17:03:54;;;;;;;22.10;6.10;;;25.10;53.80;;;;;;217614;1291;22579;-49
2023/09/27 17:08:58;;;;;;;8.60;5.80;;;25.20;53.70;;;;;;216852;1287;22706;-52
2023/09/27 17:14:02;;;;;;;10.90;5.30;;;25.20;53.90;;;;;;217203;1285;25339;-53
2023/09/27 17:19:20;;;;;;;9.50;6.40;;;25.20;53.90;;;;;;217327;1285;22568;-54
2023/09/27 17:24:25;;;;;;;12.60;6.10;;;25.20;54.20;;;;;;216985;1291;22583;-54
2023/09/27 17:29:29;;;;;;;11.90;6.30;;;25.20;54.20;;;;;;217508;1294;22555;-56
2023/09/27 17:34:34;;;;;;;12.20;5.80;;;24.90;55.30;;;;;;217197;1297;22551;-56
2023/09/27 17:39:39;;;;;;;10.50;7.70;;;24.90;56.20;;;;;;217041;1287;26345;-56
2023/09/27 17:44:45;;;;;;;8.90;6.80;;;24.90;56.80;;;;;;217615;1295;25190;-59
2023/09/27 17:49:52;;;;;;;13.60;8.40;;;24.80;56.80;;;;;;217026;1292;24477;-56
2023/09/27 17:54:59;;;;;;;10.80;9.00;;;24.70;56.90;;;;;;216914;1291;22562;-55
2023/09/27 18:00:05;;;;;;;14.40;7.90;;;24.60;57.60;;;;;;217062;1292;25447;-57
2023/09/27 18:05:10;;;;;;;16.70;7.80;;;24.70;57.50;;;;;;216942;1297;25625;-57
2023/09/27 18:10:15;;;;;;;15.40;7.60;;;24.70;57.30;;;;;;217339;1285;22552;-56
2023/09/27 18:15:25;;;;;;;10.80;7.00;;;24.60;58.10;;;;;;217503;1291;22782;-59
2023/09/27 18:20:42;;;;;;;14.30;7.10;;;24.60;57.10;;;;;;217442;1292;22817;-58
2023/09/27 18:26:45;;;;;;;8.70;6.90;;;24.50;57.30;;;;;;217840;1292;25416;-53
2023/09/27 18:31:53;;;;;;;13.40;7.50;;;24.50;57.50;;;;;;217679;1292;22637;-53
2023/09/27 18:36:59;;;;;;;10.90;6.70;;;24.40;57.90;;;;;;217255;1292;23023;-53
2023/09/27 18:42:07;;;;;;;14.70;7.30;;;24.40;57.50;;;;;;218566;1289;25569;-54
2023/09/27 18:47:11;;;;;;;12.80;6.50;;;24.60;57.20;;;;;;216972;1279;26596;-56
2023/09/27 18:52:20;;;;;;;10.90;7.30;;;24.40;57.90;;;;;;216515;1295;25329;-57
2023/09/27 18:57:25;;;;;;;14.40;7.30;;;24.50;58.80;;;;;;218460;1294;22572;-65
2023/09/27 19:02:32;;;;;;;20.60;7.70;;;24.60;58.80;;;;;;216716;1288;23850;-57
2023/09/27 19:07:37;;;;;;;17.20;7.30;;;24.60;59.70;;;;;;216898;1301;25319;-56
2023/09/27 19:12:43;;;;;;;11.40;7.30;;;24.50;58.50;;;;;;216926;1298;22750;-57
2023/09/27 19:17:47;;;;;;;8.80;6.60;;;24.40;57.60;;;;;;217053;1296;22563;-55
2023/09/27 19:22:52;;;;;;;17.00;7.40;;;24.30;58.10;;;;;;216819;1297;23973;-54
2023/09/27 19:28:00;;;;;;;11.90;7.80;;;24.20;58.40;;;;;;216496;1288;23995;-54
2023/09/27 19:33:10;;;;;;;10.00;7.10;;;24.30;58.60;;;;;;216556;1282;24462;-54
2023/09/27 19:38:21;;;;;;;15.20;7.30;;;24.30;58.10;;;;;;216967;1294;22610;-56
2023/09/27 19:43:32;;;;;;;11.80;7.70;;;24.40;58.00;;;;;;217082;1294;25281;-57
2023/09/27 19:48:43;;;;;;;12.90;8.00;;;24.40;58.70;;;;;;217169;1291;24035;-54
2023/09/27 19:53:47;;;;;;;10.00;7.40;;;24.30;57.80;;;;;;216994;1295;25305;-56
2023/09/27 19:58:53;;;;;;;15.40;7.20;;;24.20;58.50;;;;;;217159;1294;22580;-56
2023/09/27 20:03:57;;;;;;;15.20;7.40;;;24.00;57.60;;;;;;217157;1291;24275;-59
2023/09/27 20:09:02;;;;;;;13.50;7.70;;;23.90;57.50;;;;;;217118;1294;24222;-56
2023/09/27 20:14:06;;;;;;;10.10;7.10;;;23.70;57.20;;;;;;217323;1298;22743;-59
2023/09/27 20:19:10;;;;;;;11.30;7.20;;;23.80;57.90;;;;;;217092;1291;22627;-56
2023/09/27 20:24:15;;;;;;;14.00;7.40;;;24.10;57.20;;;;;;217051;1294;24210;-60
2023/09/27 20:29:23;;;;;;;9.50;7.10;;;24.30;57.00;;;;;;217418;1297;25387;-60
2023/09/27 20:34:30;;;;;;;12.00;6.20;;;24.30;57.00;;;;;;217187;1291;23986;-60
2023/09/27 20:39:35;;;;;;;10.40;6.30;;;24.40;57.20;;;;;;217257;1288;22557;-61
2023/09/27 20:44:43;;;;;;;12.80;7.20;;;24.40;57.30;;;;;;217340;1292;22543;-63
2023/09/27 20:49:52;;;;;;;12.20;8.50;;;24.40;57.80;;;;;;217182;1298;22567;-61
2023/09/27 20:54:59;;;;;;;15.90;8.60;;;24.50;58.60;;;;;;217921;1288;23169;-60
2023/09/27 21:00:02;;;;;;;11.20;7.40;;;24.80;60.50;;;;;;217057;1298;22717;-60
2023/09/27 21:05:05;;;;;;;14.40;8.10;;;24.90;60.80;;;;;;217289;1295;23941;-61
2023/09/27 21:10:09;;;;;;;13.00;7.80;;;24.70;60.40;;;;;;216808;1291;22550;-61
2023/09/27 21:15:12;;;;;;;11.20;7.10;;;24.60;59.70;;;;;;217103;1286;25415;-61
2023/09/27 21:20:15;;;;;;;15.20;7.50;;;24.50;59.70;;;;;;217102;1292;22665;-62
2023/09/27 21:25:19;;;;;;;9.60;7.00;;;24.50;59.80;;;;;;216988;1298;22682;-61
2023/09/27 21:30:21;;;;;;;9.10;6.60;;;24.30;58.40;;;;;;216985;1298;22782;-62
2023/09/27 21:35:24;;;;;;;11.80;7.10;;;24.30;57.90;;;;;;217181;1291;22703;-61
2023/09/27 21:40:27;;;;;;;11.00;7.30;;;24.20;57.60;;;;;;216950;1292;22560;-62
2023/09/27 21:45:30;;;;;;;12.60;8.70;;;24.20;57.70;;;;;;216863;1283;22573;-60
2023/09/27 21:50:36;;;;;;;21.10;7.30;;;24.10;58.10;;;;;;218428;1288;24279;-60
2023/09/27 21:55:38;;;;;;;14.70;7.90;;;24.20;57.40;;;;;;217276;1294;22567;-62
2023/09/27 22:00:41;;;;;;;10.50;7.50;;;24.10;57.70;;;;;;217311;1298;22550;-62
2023/09/27 22:05:44;;;;;;;12.40;6.70;;;24.10;59.80;;;;;;217476;1297;22490;-61
2023/09/27 22:10:47;;;;;;;18.20;7.60;;;24.10;58.00;;;;;;217385;1298;23972;-61
2023/09/27 22:15:58;;;;;;;12.40;7.80;;;24.50;60.90;;;;;;217213;1292;22550;-61
2023/09/27 22:21:14;;;;;;;13.60;7.50;;;24.60;60.70;;;;;;216868;1276;25555;-59
2023/09/27 22:26:17;;;;;;;13.60;8.80;;;24.50;60.90;;;;;;220607;1292;22616;-66
2023/09/27 22:31:30;;;;;;;12.90;7.40;;;24.70;60.50;;;;;;217250;1285;22550;-69
2023/09/27 22:36:32;;;;;;;11.10;7.60;;;24.50;61.40;;;;;;217142;1292;22692;-66
2023/09/27 22:41:39;;;;;;;12.30;7.70;;;24.70;61.60;;;;;;217563;1292;22567;-67
2023/09/27 22:46:43;;;;;;;9.50;7.40;;;24.70;61.50;;;;;;217281;1292;25894;-67
2023/09/27 22:51:47;;;;;;;9.90;7.40;;;24.70;61.50;;;;;;217299;1297;22586;-67
2023/09/27 22:56:52;;;;;;;10.20;7.30;;;24.70;61.50;;;;;;217326;1298;22682;-67
2023/09/27 23:01:55;;;;;;;10.10;7.00;;;24.70;61.50;;;;;;217103;1292;22553;-67
2023/09/27 23:07:01;;;;;;;12.40;7.60;;;24.70;61.90;;;;;;216838;1292;22562;-66
2023/09/27 23:12:38;;;;;;;9.70;8.70;;;24.60;62.30;;;;;;217222;1292;22552;-67
2023/09/27 23:23:05;;;;;;;10.20;6.90;;;24.50;62.40;;;;;;217265;1294;22566;-67
2023/09/27 23:28:16;;;;;;;7.50;6.80;;;24.50;62.50;;;;;;217360;1286;24742;-66
2023/09/27 23:33:19;;;;;;;8.30;7.50;;;24.40;62.80;;;;;;217376;1298;22573;-67
2023/09/27 23:43:47;;;;;;;7.50;6.30;;;24.30;62.70;;;;;;217006;1294;22690;-66
2023/09/27 23:48:52;;;;;;;11.00;6.90;;;24.30;62.50;;;;;;216951;1282;22553;-67
2023/09/27 23:53:59;;;;;;;7.70;7.00;;;24.30;62.80;;;;;;217077;1292;23200;-65
2023/09/27 23:59:17;;;;;;;7.30;6.30;;;24.30;62.70;;;;;;217114;1297;22572;-66
